Time;durP1;ratioP1;P1;durP2;ratioP2;P2;SDS_P1;SDS_P2;PMS_P1;PMS_P2;Temp;Humidity;BMP_temperature;BMP_pressure;BME280_temperature;BME280_humidity;BME280_pressure;Samples;Min_cycle;Max_cycle;Signal;HPM_P1;HPM_P2
2021/08/01 00:01:06;;;;;;;3.67;1.17;;;21.30;60.80;;;;;;5093994;28;20070;-59
2021/08/01 00:03:35;;;;;;;2.78;1.08;;;21.40;60.50;;;;;;5092856;28;20035;-59
2021/08/01 00:06:03;;;;;;;3.47;0.98;;;21.40;60.70;;;;;;5094238;28;20086;-56
2021/08/01 00:08:31;;;;;;;3.28;1.02;;;21.60;60.20;;;;;;5093360;28;20640;-60
2021/08/01 00:10:58;;;;;;;3.63;1.30;;;21.60;59.20;;;;;;5078664;28;20036;-60
2021/08/01 00:13:27;;;;;;;5.75;1.35;;;21.60;59.50;;;;;;5094735;28;21274;-53
2021/08/01 00:15:54;;;;;;;4.88;1.02;;;21.50;60.10;;;;;;5092014;28;20031;-55
2021/08/01 00:18:21;;;;;;;5.13;1.55;;;21.40;60.70;;;;;;5091411;28;20114;-47
2021/08/01 00:20:49;;;;;;;12.52;1.23;;;21.00;61.90;;;;;;5093725;28;20149;-46
2021/08/01 00:23:17;;;;;;;3.28;1.25;;;21.00;62.60;;;;;;5099178;28;20058;-47
2021/08/01 00:25:44;;;;;;;3.83;1.38;;;20.90;62.80;;;;;;5073423;28;20132;-46
2021/08/01 00:28:11;;;;;;;2.70;1.20;;;20.90;63.00;;;;;;5088721;28;20126;-51
2021/08/01 00:30:39;;;;;;;4.07;1.15;;;20.90;63.10;;;;;;5076025;28;20034;-51
2021/08/01 00:33:07;;;;;;;3.03;1.13;;;20.80;63.20;;;;;;5098558;28;20035;-50
2021/08/01 00:35:35;;;;;;;6.55;1.35;;;20.60;63.80;;;;;;5089555;28;20155;-48
2021/08/01 00:38:02;;;;;;;5.35;1.55;;;20.70;64.10;;;;;;5092115;28;20017;-48
2021/08/01 00:40:29;;;;;;;4.53;1.20;;;20.60;63.90;;;;;;5093407;28;20038;-49
2021/08/01 00:42:57;;;;;;;6.22;1.40;;;20.70;63.90;;;;;;5085908;28;20028;-50
2021/08/01 00:45:24;;;;;;;4.65;1.42;;;20.60;64.10;;;;;;5089098;28;20435;-47
2021/08/01 00:47:52;;;;;;;3.13;1.52;;;20.60;64.20;;;;;;5085521;28;20050;-50
2021/08/01 00:50:19;;;;;;;3.08;1.50;;;20.60;64.30;;;;;;5093747;28;20101;-52
2021/08/01 00:52:49;;;;;;;4.05;1.23;;;20.60;64.40;;;;;;5091023;28;20103;-48
2021/08/01 00:55:17;;;;;;;10.23;1.70;;;20.80;64.10;;;;;;5094754;28;20036;-47
2021/08/01 00:57:44;;;;;;;2.90;1.45;;;21.00;63.60;;;;;;5092552;28;20116;-50
2021/08/01 01:03:33;;;;;;;5.32;1.05;;;21.20;62.70;;;;;;5078055;28;20580;-61
2021/08/01 01:06:22;;;;;;;5.03;1.27;;;20.80;63.70;;;;;;5075179;28;20135;-60
2021/08/01 01:09:01;;;;;;;3.95;1.50;;;20.40;65.40;;;;;;5087313;28;20036;-60
2021/08/01 01:11:35;;;;;;;5.82;1.55;;;20.20;66.30;;;;;;5089043;28;20632;-60
2021/08/01 01:14:09;;;;;;;4.05;1.50;;;20.20;66.80;;;;;;5070416;28;20029;-59
2021/08/01 01:16:46;;;;;;;4.53;1.30;;;20.20;66.80;;;;;;5095982;28;20031;-59
2021/08/01 01:19:38;;;;;;;3.00;1.10;;;20.10;66.90;;;;;;5096705;28;20134;-58
2021/08/01 01:22:11;;;;;;;2.40;1.30;;;20.00;66.90;;;;;;5104050;28;20638;-61
2021/08/01 01:24:42;;;;;;;4.18;1.10;;;20.20;66.80;;;;;;5100955;28;20105;-58
2021/08/01 01:27:26;;;;;;;7.35;1.92;;;20.20;66.50;;;;;;5086317;28;20035;-61
2021/08/01 01:30:03;;;;;;;6.88;1.45;;;20.20;66.90;;;;;;5085655;28;20048;-57
2021/08/01 01:33:03;;;;;;;5.70;1.40;;;20.30;67.70;;;;;;5092264;28;20058;-59
2021/08/01 01:35:36;;;;;;;3.25;1.20;;;20.50;67.10;;;;;;5087808;28;20043;-58
2021/08/01 01:38:04;;;;;;;2.92;1.02;;;20.80;66.50;;;;;;5097896;28;20035;-61
2021/08/01 01:40:35;;;;;;;6.15;1.52;;;21.00;65.70;;;;;;5094568;28;20063;-56
2021/08/01 01:43:06;;;;;;;5.18;1.15;;;21.30;64.70;;;;;;5097982;28;20045;-60
2021/08/01 01:45:35;;;;;;;10.57;1.13;;;21.50;63.80;;;;;;5085079;28;20051;-59
2021/08/01 01:48:03;;;;;;;3.28;1.55;;;21.60;63.40;;;;;;5095231;28;20039;-58
2021/08/01 01:50:30;;;;;;;7.70;1.60;;;22.10;62.30;;;;;;5102328;28;20035;-60
2021/08/01 01:52:58;;;;;;;3.65;1.75;;;22.30;61.30;;;;;;5090410;28;20035;-58
2021/08/01 01:55:28;;;;;;;3.92;1.00;;;22.40;60.40;;;;;;5089807;28;20036;-55
2021/08/01 01:57:56;;;;;;;4.68;1.17;;;22.60;60.30;;;;;;5091710;28;20085;-60
2021/08/01 02:00:24;;;;;;;3.67;1.30;;;22.70;59.20;;;;;;5091776;28;20493;-59
2021/08/01 02:02:51;;;;;;;3.35;1.02;;;22.90;59.10;;;;;;5095054;28;20113;-61
2021/08/01 02:05:19;;;;;;;2.55;1.20;;;22.90;59.30;;;;;;5100475;28;20036;-56
2021/08/01 02:07:46;;;;;;;4.30;1.63;;;22.90;58.90;;;;;;5093305;28;20063;-55
2021/08/01 02:10:24;;;;;;;4.60;1.20;;;22.90;58.40;;;;;;5074871;28;20035;-57
2021/08/01 02:12:56;;;;;;;5.28;1.10;;;23.00;58.90;;;;;;5091883;28;20047;-59
2021/08/01 02:15:32;;;;;;;4.53;1.13;;;23.00;59.00;;;;;;5102193;28;20016;-59
2021/08/01 02:18:04;;;;;;;3.72;1.40;;;23.10;58.70;;;;;;5103388;28;20027;-59
2021/08/01 02:20:43;;;;;;;4.00;2.03;;;23.30;58.20;;;;;;5096647;28;20032;-60
2021/08/01 02:23:16;;;;;;;1.92;1.00;;;23.30;57.60;;;;;;5087017;28;20028;-61
2021/08/01 02:25:45;;;;;;;3.28;1.17;;;23.60;57.70;;;;;;5097678;28;20375;-59
2021/08/01 02:28:14;;;;;;;4.40;1.35;;;23.70;57.20;;;;;;5103402;28;20053;-59
2021/08/01 02:30:42;;;;;;;2.20;1.05;;;23.60;56.50;;;;;;5090840;28;20054;-60
2021/08/01 02:33:10;;;;;;;3.03;1.88;;;23.60;57.30;;;;;;5101717;28;20045;-60
2021/08/01 02:35:38;;;;;;;4.32;1.80;;;23.80;56.70;;;;;;5102737;28;20019;-60
2021/08/01 02:38:07;;;;;;;4.32;1.20;;;23.80;55.90;;;;;;5099138;28;20088;-60
2021/08/01 02:40:39;;;;;;;3.08;1.60;;;23.60;55.80;;;;;;5085231;28;20474;-60
2021/08/01 02:43:14;;;;;;;8.73;1.40;;;23.50;56.10;;;;;;5083757;28;20138;-62
2021/08/01 02:45:44;;;;;;;5.32;2.13;;;23.30;57.30;;;;;;5092136;28;20040;-61
2021/08/01 02:48:15;;;;;;;4.47;1.50;;;23.10;58.10;;;;;;5088802;28;20024;-49
2021/08/01 02:50:47;;;;;;;4.40;2.00;;;23.00;58.30;;;;;;5096681;28;20093;-50
2021/08/01 02:53:17;;;;;;;;;;;23.00;58.60;;;;;;5098415;28;20038;-55
2021/08/01 02:55:48;;;;;;;3.33;1.83;;;22.90;58.80;;;;;;5091077;28;19919;-63
2021/08/01 02:58:18;;;;;;;7.70;1.87;;;22.80;58.70;;;;;;5089736;28;20078;-58
2021/08/01 03:00:47;;;;;;;4.90;2.20;;;22.60;59.20;;;;;;5088449;28;20256;-55
2021/08/01 03:03:19;;;;;;;5.10;2.30;;;22.50;59.20;;;;;;5090627;28;20112;-59
2021/08/01 03:05:48;;;;;;;4.70;2.03;;;22.40;59.90;;;;;;5088764;28;20130;-57
2021/08/01 03:08:16;;;;;;;4.13;1.77;;;22.20;60.60;;;;;;5073346;28;20114;-58
2021/08/01 03:10:51;;;;;;;4.57;2.20;;;22.20;61.00;;;;;;5093137;28;20027;-55
2021/08/01 03:13:19;;;;;;;9.23;2.38;;;22.00;61.30;;;;;;5092918;28;20181;-54
2021/08/01 03:15:46;;;;;;;4.70;2.30;;;22.00;61.50;;;;;;5087853;28;20493;-58
2021/08/01 03:18:13;;;;;;;5.68;2.10;;;21.90;61.80;;;;;;5086189;28;20162;-53
2021/08/01 03:20:41;;;;;;;3.20;1.80;;;21.90;62.00;;;;;;5088771;28;20032;-52
2021/08/01 03:23:08;;;;;;;5.28;1.92;;;21.80;62.40;;;;;;5098380;28;20146;-51
2021/08/01 03:25:36;;;;;;;3.42;2.10;;;21.70;62.00;;;;;;5088616;28;20059;-56
2021/08/01 03:28:04;;;;;;;7.68;2.22;;;21.60;62.50;;;;;;5086771;28;20024;-56
2021/08/01 03:30:31;;;;;;;3.42;1.48;;;21.50;62.60;;;;;;5089830;28;20458;-56
2021/08/01 03:32:58;;;;;;;2.97;1.98;;;21.40;62.50;;;;;;5093292;28;20115;-62
2021/08/01 03:35:26;;;;;;;4.57;2.08;;;21.40;63.60;;;;;;5087875;28;20107;-59
2021/08/01 03:37:53;;;;;;;2.00;1.58;;;21.40;63.90;;;;;;5092235;28;20111;-65
2021/08/01 03:40:21;;;;;;;8.70;2.85;;;21.20;64.50;;;;;;5082963;28;20135;-61
2021/08/01 03:42:48;;;;;;;4.57;2.17;;;21.30;66.90;;;;;;5091875;28;20446;-63
2021/08/01 03:45:16;;;;;;;7.72;2.33;;;21.20;65.90;;;;;;5091713;28;20040;-61
2021/08/01 03:47:43;;;;;;;3.17;1.60;;;21.10;66.00;;;;;;5094351;28;21255;-59
2021/08/01 03:50:11;;;;;;;2.95;1.90;;;21.00;67.60;;;;;;5092145;28;20039;-60
2021/08/01 03:52:38;;;;;;;4.63;2.10;;;20.90;67.00;;;;;;5090688;28;20040;-60
2021/08/01 03:55:06;;;;;;;5.13;2.45;;;20.90;66.60;;;;;;5095834;28;20126;-63
2021/08/01 03:57:34;;;;;;;4.80;2.03;;;20.80;68.10;;;;;;5071833;28;20396;-57
2021/08/01 04:00:01;;;;;;;4.43;1.30;;;20.70;66.80;;;;;;5097349;28;20528;-56
2021/08/01 04:02:28;;;;;;;3.47;1.70;;;20.60;66.70;;;;;;5094520;28;20115;-57
2021/08/01 04:04:56;;;;;;;2.85;1.58;;;20.60;65.40;;;;;;5094768;28;20070;-55
2021/08/01 04:07:23;;;;;;;3.33;1.65;;;20.60;66.20;;;;;;5090079;27;20028;-52
2021/08/01 04:09:50;;;;;;;4.57;1.38;;;20.50;66.10;;;;;;5091064;28;20131;-59
2021/08/01 04:12:19;;;;;;;2.55;1.48;;;20.50;66.50;;;;;;5097301;28;20819;-60
2021/08/01 04:14:46;;;;;;;1.98;1.45;;;20.50;66.30;;;;;;5098610;28;20023;-62
2021/08/01 04:17:18;;;;;;;5.00;2.05;;;20.40;64.80;;;;;;5094170;28;20024;-62
2021/08/01 04:19:49;;;;;;;2.90;1.33;;;20.50;65.80;;;;;;5096028;28;21169;-63
2021/08/01 04:22:17;;;;;;;2.85;1.17;;;20.40;66.80;;;;;;5097486;28;20028;-60
2021/08/01 04:24:44;;;;;;;3.92;1.30;;;20.40;64.60;;;;;;5092940;28;20574;-60
2021/08/01 04:27:12;;;;;;;25.83;1.95;;;20.40;64.40;;;;;;5086566;28;20043;-61
2021/08/01 04:29:39;;;;;;;3.08;1.38;;;20.40;65.80;;;;;;5104418;28;20054;-61
2021/08/01 04:32:07;;;;;;;2.85;1.40;;;20.30;65.80;;;;;;5104968;28;20474;-60
2021/08/01 04:34:34;;;;;;;2.25;1.38;;;20.20;66.00;;;;;;5086786;28;20076;-59
2021/08/01 04:37:02;;;;;;;1.50;1.00;;;20.20;67.20;;;;;;5094477;28;20062;-58
2021/08/01 04:39:30;;;;;;;3.10;1.98;;;20.10;66.00;;;;;;5082284;28;20035;-57
2021/08/01 04:42:01;;;;;;;3.58;1.88;;;20.20;66.90;;;;;;5104409;28;20100;-60
2021/08/01 04:44:29;;;;;;;4.60;1.95;;;20.10;65.60;;;;;;5098685;28;20040;-59
2021/08/01 04:46:56;;;;;;;3.90;2.30;;;20.10;66.80;;;;;;5070632;28;20036;-58
2021/08/01 04:49:24;;;;;;;5.90;2.33;;;20.10;68.10;;;;;;5106909;28;20102;-62
2021/08/01 04:51:51;;;;;;;6.53;2.92;;;20.10;66.00;;;;;;5088587;28;20027;-60
2021/08/01 04:54:18;;;;;;;9.57;3.47;;;20.10;67.00;;;;;;5089360;28;20034;-57
2021/08/01 04:56:46;;;;;;;5.57;3.00;;;20.10;67.90;;;;;;5106600;28;20030;-59
2021/08/01 04:59:14;;;;;;;5.22;3.70;;;20.10;68.70;;;;;;5093751;28;20028;-57
2021/08/01 05:01:41;;;;;;;13.02;4.85;;;20.00;66.20;;;;;;5104579;28;20024;-58
2021/08/01 05:04:10;;;;;;;8.55;7.75;;;20.00;67.20;;;;;;5087868;28;20480;-57
2021/08/01 05:06:38;;;;;;;9.93;5.10;;;20.00;67.60;;;;;;5103424;28;20043;-54
2021/08/01 05:09:06;;;;;;;5.47;4.65;;;19.90;69.10;;;;;;5104260;28;20069;-56
2021/08/01 05:11:33;;;;;;;8.07;5.10;;;19.90;66.90;;;;;;5086789;28;20028;-57
2021/08/01 05:14:01;;;;;;;7.15;5.90;;;19.90;68.60;;;;;;5099103;28;20036;-58
2021/08/01 05:16:29;;;;;;;8.10;5.68;;;20.00;68.70;;;;;;5087536;28;20051;-58
2021/08/01 05:18:56;;;;;;;5.85;4.97;;;20.00;67.80;;;;;;5099768;28;20575;-53
2021/08/01 05:21:24;;;;;;;5.03;4.60;;;20.00;66.70;;;;;;5089020;28;20362;-56
2021/08/01 05:23:52;;;;;;;13.50;5.88;;;20.00;67.30;;;;;;5105306;28;20047;-56
2021/08/01 05:26:19;;;;;;;8.63;6.03;;;19.90;68.00;;;;;;5098138;28;20132;-55
2021/08/01 05:28:47;;;;;;;7.15;5.55;;;19.90;69.20;;;;;;5086492;28;20078;-57
2021/08/01 05:31:15;;;;;;;6.50;5.80;;;19.90;69.40;;;;;;5097677;28;20545;-58
2021/08/01 05:33:42;;;;;;;6.53;5.93;;;19.90;69.20;;;;;;5101526;28;21497;-59
2021/08/01 05:36:11;;;;;;;7.38;6.70;;;19.90;69.00;;;;;;5103969;28;20101;-57
2021/08/01 05:38:39;;;;;;;8.75;7.28;;;19.80;69.50;;;;;;5087523;28;20027;-58
2021/08/01 05:41:07;;;;;;;8.50;7.28;;;19.80;70.10;;;;;;5100231;28;20028;-60
2021/08/01 05:43:39;;;;;;;8.65;7.82;;;19.80;71.10;;;;;;5092899;28;20028;-61
2021/08/01 05:46:09;;;;;;;13.85;6.68;;;19.80;68.60;;;;;;5086714;28;20047;-62
2021/08/01 05:48:36;;;;;;;13.77;6.80;;;19.70;70.40;;;;;;5101478;28;20040;-60
2021/08/01 05:51:08;;;;;;;10.93;5.55;;;19.70;70.80;;;;;;5105998;28;20035;-63
2021/08/01 05:53:35;;;;;;;6.82;5.47;;;19.70;69.70;;;;;;5106569;28;20039;-61
2021/08/01 05:56:12;;;;;;;6.00;4.82;;;19.70;70.10;;;;;;5105281;28;21153;-61
2021/08/01 05:58:41;;;;;;;6.55;5.57;;;19.60;70.80;;;;;;5105522;28;20038;-61
2021/08/01 06:01:13;;;;;;;6.65;4.60;;;19.60;70.70;;;;;;5105623;28;20467;-58
2021/08/01 06:03:42;;;;;;;5.13;4.32;;;19.60;70.70;;;;;;5086292;28;20036;-61
2021/08/01 06:06:17;;;;;;;6.20;4.82;;;19.50;69.20;;;;;;5096190;28;20090;-58
2021/08/01 06:08:47;;;;;;;5.60;5.10;;;19.50;71.30;;;;;;5095649;28;20032;-59
2021/08/01 06:11:15;;;;;;;7.43;4.47;;;19.50;70.60;;;;;;5090203;28;20031;-63
2021/08/01 06:13:43;;;;;;;3.72;3.42;;;19.50;70.80;;;;;;5088832;28;20059;-59
2021/08/01 06:16:13;;;;;;;4.07;3.58;;;19.50;69.00;;;;;;5094511;28;20016;-59
2021/08/01 06:18:44;;;;;;;4.43;3.90;;;19.40;70.90;;;;;;5096032;28;20024;-60
2021/08/01 06:21:19;;;;;;;4.30;3.90;;;19.40;71.60;;;;;;5096585;28;20186;-55
2021/08/01 06:23:49;;;;;;;6.82;3.95;;;19.40;71.30;;;;;;5097354;28;20551;-60
2021/08/01 06:26:18;;;;;;;6.10;3.97;;;19.40;71.20;;;;;;5073222;28;20039;-56
2021/08/01 06:28:46;;;;;;;4.57;4.10;;;19.30;72.00;;;;;;5091807;28;20052;-53
2021/08/01 06:31:13;;;;;;;4.45;3.60;;;19.30;70.80;;;;;;5099554;28;20140;-61
2021/08/01 06:33:41;;;;;;;3.47;3.17;;;19.30;70.70;;;;;;5092493;28;20146;-63
2021/08/01 06:36:11;;;;;;;4.85;3.70;;;19.30;67.70;;;;;;5094381;28;20058;-58
2021/08/01 06:38:39;;;;;;;4.60;3.47;;;19.30;71.60;;;;;;5096282;28;20024;-55
2021/08/01 06:41:07;;;;;;;4.00;3.60;;;19.30;71.00;;;;;;5095680;28;20088;-58
2021/08/01 06:43:35;;;;;;;4.10;3.70;;;19.30;71.30;;;;;;5095837;28;20036;-61
2021/08/01 06:46:04;;;;;;;5.22;2.88;;;19.30;70.70;;;;;;5096517;28;20046;-60
2021/08/01 06:48:31;;;;;;;3.53;2.92;;;19.30;71.00;;;;;;5096147;28;20110;-61
2021/08/01 06:50:58;;;;;;;3.45;3.00;;;19.30;70.30;;;;;;5093950;28;20043;-59
2021/08/01 06:53:27;;;;;;;2.83;2.63;;;19.20;70.70;;;;;;5092201;28;20115;-60
2021/08/01 06:55:55;;;;;;;2.33;2.13;;;19.20;70.40;;;;;;5091654;28;20119;-59
2021/08/01 06:58:23;;;;;;;3.70;3.05;;;19.20;69.30;;;;;;5092446;28;20077;-57
2021/08/01 07:00:52;;;;;;;3.35;2.92;;;19.20;69.80;;;;;;5093745;28;20022;-56
2021/08/01 07:03:25;;;;;;;3.33;2.45;;;19.20;70.10;;;;;;5100337;28;20448;-64
2021/08/01 07:05:52;;;;;;;3.25;2.38;;;19.20;71.20;;;;;;5085151;28;20036;-56
2021/08/01 07:08:20;;;;;;;2.50;2.30;;;19.20;70.90;;;;;;5095777;28;20502;-55
2021/08/01 07:10:48;;;;;;;2.95;2.60;;;19.10;70.30;;;;;;5090441;28;20035;-60
2021/08/01 07:13:16;;;;;;;3.00;2.70;;;19.10;70.30;;;;;;5095682;28;20487;-57
2021/08/01 07:15:43;;;;;;;2.50;2.30;;;19.10;69.90;;;;;;5098041;28;20039;-63
2021/08/01 07:18:10;;;;;;;2.83;2.50;;;19.10;70.30;;;;;;5097802;28;20111;-64
2021/08/01 07:20:38;;;;;;;3.42;2.35;;;19.10;70.60;;;;;;5097514;28;20439;-60
2021/08/01 07:23:09;;;;;;;2.70;2.40;;;19.10;70.50;;;;;;5099244;28;20141;-60
2021/08/01 07:25:37;;;;;;;2.95;2.38;;;19.10;71.10;;;;;;5096436;28;20114;-58
2021/08/01 07:28:04;;;;;;;3.75;2.30;;;19.10;70.50;;;;;;5098524;28;20138;-59
2021/08/01 07:30:32;;;;;;;2.92;2.17;;;19.00;70.50;;;;;;5095887;28;20051;-62
2021/08/01 07:33:00;;;;;;;2.85;2.50;;;19.00;70.10;;;;;;5081469;28;20039;-63
2021/08/01 07:35:27;;;;;;;2.47;2.25;;;19.00;71.60;;;;;;5090691;28;20482;-60
2021/08/01 07:37:55;;;;;;;2.83;1.98;;;19.00;70.60;;;;;;5082754;28;20035;-61
2021/08/01 07:40:22;;;;;;;2.17;1.98;;;19.00;70.20;;;;;;5100125;28;20038;-59
2021/08/01 07:42:50;;;;;;;2.83;1.92;;;19.00;70.10;;;;;;5075075;28;20035;-67
2021/08/01 07:45:25;;;;;;;2.08;1.80;;;19.00;70.10;;;;;;5098253;28;20450;-53
2021/08/01 07:47:53;;;;;;;2.70;2.25;;;19.00;70.70;;;;;;5104053;28;20099;-56
2021/08/01 07:50:20;;;;;;;3.10;2.03;;;19.00;71.60;;;;;;5094498;28;20145;-55
2021/08/01 07:52:48;;;;;;;2.63;1.80;;;19.00;71.30;;;;;;5101571;28;20028;-61
2021/08/01 07:55:15;;;;;;;3.33;1.83;;;19.00;71.70;;;;;;5088947;28;20046;-59
2021/08/01 07:57:44;;;;;;;5.57;2.33;;;19.00;72.20;;;;;;5102688;28;20031;-56
2021/08/01 08:00:13;;;;;;;5.57;2.60;;;19.00;72.10;;;;;;5095086;28;20449;-59
2021/08/01 08:02:43;;;;;;;7.22;1.88;;;18.90;72.40;;;;;;5099337;28;20138;-62
2021/08/01 08:05:11;;;;;;;5.43;2.35;;;18.90;72.30;;;;;;5095836;28;20043;-62
2021/08/01 08:07:40;;;;;;;4.57;2.50;;;18.80;72.60;;;;;;5094842;28;20066;-61
2021/08/01 08:10:08;;;;;;;3.67;2.25;;;18.80;72.80;;;;;;5094742;28;20036;-62
2021/08/01 08:12:36;;;;;;;5.22;2.00;;;18.70;73.10;;;;;;5099194;28;20409;-63
2021/08/01 08:15:05;;;;;;;3.28;1.85;;;18.60;73.30;;;;;;5094530;28;20032;-66
2021/08/01 08:17:36;;;;;;;2.88;1.98;;;18.60;73.40;;;;;;5098814;28;20020;-60
2021/08/01 08:20:05;;;;;;;7.15;3.95;;;18.60;73.70;;;;;;5097939;28;20031;-64
2021/08/01 08:22:33;;;;;;;19.95;9.38;;;18.50;73.70;;;;;;5091269;28;20537;-61
2021/08/01 08:25:01;;;;;;;25.92;13.57;;;18.50;73.80;;;;;;5094137;28;20042;-62
2021/08/01 08:27:28;;;;;;;35.97;18.70;;;18.50;74.10;;;;;;5074478;28;20552;-62
2021/08/01 08:30:02;;;;;;;42.92;23.83;;;18.40;74.20;;;;;;5094560;28;20192;-60
2021/08/01 08:32:30;;;;;;;47.85;26.10;;;18.40;74.50;;;;;;5096457;28;20058;-63
2021/08/01 08:34:58;;;;;;;49.40;26.33;;;18.40;74.70;;;;;;5094048;28;20232;-60
2021/08/01 08:37:25;;;;;;;54.45;28.52;;;18.30;74.90;;;;;;5096601;28;20489;-62
2021/08/01 08:39:53;;;;;;;54.47;29.50;;;18.30;75.20;;;;;;5098029;28;20024;-60
2021/08/01 08:42:22;;;;;;;49.60;28.23;;;18.20;75.40;;;;;;5089914;27;20031;-65
2021/08/01 08:44:50;;;;;;;50.85;26.30;;;18.20;75.60;;;;;;5090944;28;20047;-65
2021/08/01 08:47:19;;;;;;;49.25;25.85;;;18.10;75.60;;;;;;5096053;28;20180;-56
2021/08/01 08:49:51;;;;;;;45.85;25.27;;;18.10;75.90;;;;;;5097119;28;20031;-63
2021/08/01 08:52:18;;;;;;;52.88;25.63;;;18.10;76.10;;;;;;5092976;28;20640;-60
2021/08/01 08:54:52;;;;;;;45.38;25.15;;;18.10;76.40;;;;;;5095102;28;20031;-56
2021/08/01 08:57:37;;;;;;;40.58;19.70;;;18.00;77.00;;;;;;5099902;28;20190;-56
2021/08/01 09:00:10;;;;;;;36.30;18.63;;;17.80;77.40;;;;;;5095371;28;20027;-59
2021/08/01 09:02:40;;;;;;;44.58;19.48;;;17.80;77.20;;;;;;5094487;28;20437;-58
2021/08/01 09:05:09;;;;;;;37.92;19.33;;;17.80;77.00;;;;;;5092031;28;20069;-58
2021/08/01 09:07:41;;;;;;;34.28;18.90;;;17.80;77.00;;;;;;5096525;28;20065;-63
2021/08/01 09:10:10;;;;;;;35.63;18.90;;;17.80;77.10;;;;;;5091731;28;20020;-63
2021/08/01 09:12:55;;;;;;;34.58;18.75;;;17.80;77.30;;;;;;5096029;28;20067;-63
2021/08/01 09:15:28;;;;;;;33.63;19.17;;;17.70;77.20;;;;;;5092689;28;20055;-63
2021/08/01 09:17:58;;;;;;;33.85;18.77;;;17.70;77.30;;;;;;5098432;28;20036;-62
2021/08/01 09:20:34;;;;;;;31.70;18.40;;;17.70;77.50;;;;;;5095871;28;20126;-59
2021/08/01 09:23:01;;;;;;;31.98;18.90;;;17.70;77.50;;;;;;5085976;28;20028;-63
2021/08/01 09:25:30;;;;;;;34.55;18.55;;;17.70;77.60;;;;;;5095920;28;20043;-62
2021/08/01 09:28:16;;;;;;;31.08;17.15;;;17.60;77.50;;;;;;5092774;28;20436;-62
2021/08/01 09:30:49;;;;;;;34.53;19.13;;;17.60;77.60;;;;;;5097543;28;20061;-63
2021/08/01 09:33:30;;;;;;;35.80;17.33;;;17.60;77.60;;;;;;5097611;28;20034;-60
2021/08/01 09:36:08;;;;;;;32.67;17.83;;;17.60;77.70;;;;;;5095167;28;20113;-60
2021/08/01 09:38:45;;;;;;;34.72;16.77;;;17.60;77.70;;;;;;5089811;28;20153;-62
2021/08/01 09:41:13;;;;;;;34.30;16.58;;;17.60;77.60;;;;;;5089695;28;20047;-63
2021/08/01 09:43:56;;;;;;;31.95;15.95;;;17.60;77.70;;;;;;5078180;28;20048;-62
2021/08/01 09:46:40;;;;;;;30.40;16.42;;;17.60;77.70;;;;;;5096832;28;20036;-62
2021/08/01 09:49:13;;;;;;;32.53;16.35;;;17.50;77.70;;;;;;5093827;28;20028;-62
2021/08/01 09:51:43;;;;;;;30.98;15.20;;;17.50;77.70;;;;;;5097770;28;20020;-61
2021/08/01 09:54:12;;;;;;;28.25;15.20;;;17.50;77.80;;;;;;5074029;28;20028;-64
2021/08/01 09:56:51;;;;;;;28.77;14.75;;;17.50;77.60;;;;;;5077297;28;20023;-56
2021/08/01 09:59:21;;;;;;;25.55;14.52;;;17.50;77.70;;;;;;5092785;28;20118;-60
2021/08/01 10:01:49;;;;;;;23.40;13.30;;;17.50;77.70;;;;;;5093494;28;20034;-62
2021/08/01 10:04:37;;;;;;;26.83;13.48;;;17.50;77.50;;;;;;5093918;28;20122;-61
2021/08/01 10:07:18;;;;;;;25.17;13.25;;;17.50;77.30;;;;;;5097432;28;20079;-62
2021/08/01 10:09:49;;;;;;;22.80;12.75;;;17.50;77.30;;;;;;5067252;28;20035;-61
2021/08/01 10:12:17;;;;;;;23.88;13.13;;;17.50;77.30;;;;;;5085273;28;20128;-61
2021/08/01 10:14:53;;;;;;;24.02;13.75;;;17.50;77.30;;;;;;5084695;28;20539;-62
2021/08/01 10:17:31;;;;;;;25.25;13.00;;;17.50;77.40;;;;;;5084143;28;20042;-60
2021/08/01 10:19:59;;;;;;;23.67;12.65;;;17.40;77.30;;;;;;5085196;28;20388;-61
2021/08/01 10:22:29;;;;;;;20.23;12.02;;;17.40;77.40;;;;;;5084591;28;20089;-60
2021/08/01 10:25:01;;;;;;;22.45;11.57;;;17.40;77.50;;;;;;5083696;28;20125;-62
2021/08/01 10:27:28;;;;;;;24.05;11.40;;;17.40;77.50;;;;;;5085085;28;20028;-62
2021/08/01 10:29:56;;;;;;;28.20;12.32;;;17.40;77.60;;;;;;5084630;28;20060;-60
2021/08/01 10:32:27;;;;;;;25.73;12.32;;;17.40;77.60;;;;;;5084195;28;20028;-61
2021/08/01 10:35:12;;;;;;;23.13;10.95;;;17.30;77.60;;;;;;5084556;28;20028;-61
2021/08/01 10:38:08;;;;;;;18.42;10.57;;;17.30;77.60;;;;;;5084594;28;20030;-61
2021/08/01 10:40:36;;;;;;;22.17;11.55;;;17.30;77.60;;;;;;5084935;28;20074;-59
2021/08/01 10:43:16;;;;;;;18.48;10.52;;;17.30;77.60;;;;;;5083998;28;20036;-61
2021/08/01 10:45:53;;;;;;;19.42;10.18;;;17.30;77.70;;;;;;5065956;28;20127;-62
2021/08/01 10:48:36;;;;;;;20.75;10.60;;;17.20;77.60;;;;;;5084894;28;20141;-61
2021/08/01 10:51:04;;;;;;;17.42;10.20;;;17.20;77.60;;;;;;5088378;28;20423;-59
2021/08/01 10:53:31;;;;;;;17.25;9.88;;;17.20;77.60;;;;;;5091354;28;20210;-62
2021/08/01 10:56:08;;;;;;;20.02;9.77;;;17.20;77.40;;;;;;5091097;28;20012;-61
2021/08/01 10:58:37;;;;;;;18.30;9.00;;;17.20;77.50;;;;;;5091228;28;20455;-61
2021/08/01 11:01:06;;;;;;;22.02;10.75;;;17.20;77.40;;;;;;5091296;28;20031;-60
2021/08/01 11:03:42;;;;;;;16.50;8.90;;;17.20;77.40;;;;;;5091587;28;20036;-60
2021/08/01 11:06:36;;;;;;;20.98;9.98;;;17.20;77.30;;;;;;5090569;28;20050;-60
2021/08/01 11:09:13;;;;;;;20.30;8.52;;;17.20;77.20;;;;;;5091182;28;20077;-62
2021/08/01 11:11:44;;;;;;;20.00;8.90;;;17.20;77.40;;;;;;5097453;28;20029;-61
2021/08/01 11:14:49;;;;;;;18.27;8.55;;;17.10;77.20;;;;;;5111490;28;20091;-60
2021/08/01 11:17:22;;;;;;;16.95;8.30;;;17.10;77.10;;;;;;5111435;28;20096;-60
2021/08/01 11:19:50;;;;;;;14.23;7.90;;;17.10;77.20;;;;;;5111719;28;20836;-61
2021/08/01 11:22:38;;;;;;;13.75;7.50;;;17.10;77.20;;;;;;5111079;28;20068;-61
2021/08/01 11:25:25;;;;;;;16.40;7.57;;;17.10;77.10;;;;;;5111351;28;20485;-59
2021/08/01 11:28:12;;;;;;;16.52;8.27;;;17.10;77.00;;;;;;5111715;28;20036;-61
2021/08/01 11:30:52;;;;;;;17.90;7.55;;;17.00;76.90;;;;;;5111496;28;20024;-61
2021/08/01 11:33:44;;;;;;;16.25;7.88;;;17.10;77.00;;;;;;5111467;27;20394;-60
2021/08/01 11:36:17;;;;;;;12.90;7.53;;;17.00;76.90;;;;;;5110919;27;20032;-59
2021/08/01 11:38:54;;;;;;;12.57;6.97;;;17.00;77.30;;;;;;5111175;28;20035;-62
2021/08/01 11:41:33;;;;;;;14.25;7.13;;;17.00;76.80;;;;;;5111797;28;20042;-60
2021/08/01 11:44:26;;;;;;;13.32;6.63;;;17.00;76.70;;;;;;5111332;28;21221;-60
2021/08/01 11:47:07;;;;;;;11.98;6.32;;;17.00;76.80;;;;;;5111451;28;20772;-59
2021/08/01 11:49:44;;;;;;;12.35;6.68;;;16.90;76.80;;;;;;5111368;28;20669;-60
2021/08/01 11:52:13;;;;;;;12.73;5.95;;;16.90;77.00;;;;;;5111126;28;20430;-63
2021/08/01 11:54:43;;;;;;;12.88;6.20;;;16.90;76.90;;;;;;5111204;28;20160;-59
2021/08/01 11:57:14;;;;;;;11.27;6.25;;;16.90;76.60;;;;;;5098048;27;20036;-56
2021/08/01 11:59:43;;;;;;;11.18;5.78;;;16.90;76.50;;;;;;5081531;28;20489;-55
2021/08/01 12:02:12;;;;;;;9.85;5.43;;;16.90;76.70;;;;;;5096025;28;20115;-61
2021/08/01 12:04:51;;;;;;;10.57;5.03;;;16.90;76.80;;;;;;5095858;28;20024;-64
2021/08/01 12:07:19;;;;;;;9.15;4.90;;;16.80;76.60;;;;;;5074466;28;20522;-59
2021/08/01 12:09:46;;;;;;;7.28;4.43;;;16.80;76.50;;;;;;5096040;28;20106;-57
2021/08/01 12:12:13;;;;;;;11.65;5.40;;;16.80;76.30;;;;;;5097063;28;20034;-58
2021/08/01 12:14:43;;;;;;;8.32;4.70;;;16.80;76.20;;;;;;5096731;28;20030;-61
2021/08/01 12:17:14;;;;;;;8.82;5.10;;;16.90;76.30;;;;;;5096791;28;20034;-61
2021/08/01 12:19:42;;;;;;;8.32;4.68;;;16.80;76.20;;;;;;5060791;28;20036;-63
2021/08/01 12:22:24;;;;;;;9.23;4.38;;;16.80;76.10;;;;;;5095308;28;20054;-64
2021/08/01 12:24:59;;;;;;;6.97;4.30;;;16.80;76.30;;;;;;5099488;28;20120;-61
2021/08/01 12:27:32;;;;;;;9.73;4.55;;;16.80;76.00;;;;;;5097371;28;20032;-64
2021/08/01 12:30:06;;;;;;;8.52;4.30;;;16.80;75.90;;;;;;5090561;28;20054;-63
2021/08/01 12:32:37;;;;;;;7.95;4.53;;;16.80;75.90;;;;;;5090935;28;20081;-64
2021/08/01 12:35:11;;;;;;;8.43;4.88;;;16.80;75.80;;;;;;5095032;28;20028;-63
2021/08/01 12:37:46;;;;;;;8.00;4.53;;;16.70;75.80;;;;;;5089704;28;20443;-63
2021/08/01 12:40:35;;;;;;;9.50;4.80;;;16.80;75.80;;;;;;5091142;28;20430;-64
2021/08/01 12:43:10;;;;;;;6.50;3.72;;;16.70;75.60;;;;;;5094574;28;20065;-67
2021/08/01 12:45:48;;;;;;;6.53;4.03;;;16.70;75.60;;;;;;5094768;28;20118;-66
2021/08/01 12:48:17;;;;;;;7.57;4.50;;;16.70;75.50;;;;;;5072373;28;20028;-66
2021/08/01 12:50:49;;;;;;;8.43;4.30;;;16.70;75.50;;;;;;5097890;28;20469;-69
2021/08/01 12:53:19;;;;;;;9.20;3.85;;;16.70;75.50;;;;;;5096395;28;20036;-68
2021/08/01 12:55:52;;;;;;;8.73;4.63;;;16.60;75.30;;;;;;5098688;28;20119;-64
2021/08/01 12:58:28;;;;;;;8.60;4.43;;;16.60;75.50;;;;;;5091566;28;20483;-63
2021/08/01 13:00:57;;;;;;;6.82;4.00;;;16.60;75.40;;;;;;5095228;28;20035;-62
2021/08/01 13:03:40;;;;;;;8.80;4.03;;;16.60;75.30;;;;;;5094348;28;20498;-60
2021/08/01 13:06:09;;;;;;;13.13;4.57;;;16.60;75.40;;;;;;5098148;28;20036;-67